Time;durP1;ratioP1;P1;durP2;ratioP2;P2;SDS_P1;SDS_P2;PMS_P1;PMS_P2;Temp;Humidity;BMP_temperature;BMP_pressure;BME280_temperature;BME280_humidity;BME280_pressure;Samples;Min_cycle;Max_cycle;Signal;HPM_P1;HPM_P2
2022/09/18 00:01:55;;;;;;;;;9.25;5.75;;;;;12.83;51.75;101878.94;5038635;28;45916;-87
2022/09/18 00:04:20;;;;;;;;;10.25;7.25;;;;;12.79;51.81;101878.16;5039668;28;45366;-88
2022/09/18 00:06:52;;;;;;;;;9.50;5.50;;;;;12.80;52.51;101886.88;5037527;28;45322;-87
2022/09/18 00:09:18;;;;;;;;;8.50;6.25;;;;;12.75;52.01;101881.72;5054613;28;47083;-87
2022/09/18 00:11:52;;;;;;;;;7.75;7.00;;;;;12.73;52.04;101882.66;5021308;28;45643;-87
2022/09/18 00:14:26;;;;;;;;;8.50;5.50;;;;;12.68;51.64;101871.44;5006172;28;45396;-87
2022/09/18 00:16:51;;;;;;;;;12.00;6.00;;;;;12.62;52.06;101879.41;5037519;28;45447;-88
2022/09/18 00:19:20;;;;;;;;;6.75;6.25;;;;;12.59;52.52;101872.47;5037737;28;45891;-87
2022/09/18 00:21:47;;;;;;;;;8.00;7.00;;;;;12.57;52.07;101880.34;5037221;28;45503;-87
2022/09/18 00:24:13;;;;;;;;;8.25;6.75;;;;;12.53;52.72;101872.59;5037678;28;45396;-87
2022/09/18 00:26:47;;;;;;;;;6.75;6.75;;;;;12.50;52.34;101865.69;5037676;28;45418;-88
2022/09/18 00:29:16;;;;;;;;;8.50;6.00;;;;;12.47;52.60;101873.56;5037590;28;45436;-88
2022/09/18 00:31:48;;;;;;;;;6.50;5.00;;;;;12.46;52.49;101873.59;5037733;28;45749;-87
2022/09/18 00:34:16;;;;;;;;;11.50;6.75;;;;;12.43;52.64;101869.28;5038624;28;45461;-87
2022/09/18 00:36:42;;;;;;;;;6.75;6.75;;;;;12.43;52.57;101876.28;5057693;28;45383;-87
2022/09/18 00:39:08;;;;;;;;;8.00;4.00;;;;;12.40;52.96;101877.16;5057871;28;46182;-87
2022/09/18 00:41:41;;;;;;;;;5.50;3.75;;;;;12.40;53.05;101874.56;5057934;28;45493;-87
2022/09/18 00:44:43;;;;;;;;;7.25;6.00;;;;;12.39;53.22;101880.69;5058045;28;45305;-87
2022/09/18 00:47:09;;;;;;;;;8.00;4.50;;;;;12.36;53.30;101880.72;5058038;28;45370;-87
2022/09/18 00:49:58;;;;;;;;;5.33;3.00;;;;;12.34;53.54;101885.13;5056733;28;47851;-87
2022/09/18 00:52:27;;;;;;;;;6.50;3.75;;;;;12.30;53.07;101880.84;5049117;28;46058;-86
2022/09/18 00:54:57;;;;;;;;;6.25;4.00;;;;;12.28;53.20;101878.25;5041034;28;45507;-87
2022/09/18 00:57:28;;;;;;;;;5.50;3.25;;;;;12.28;53.14;101880.88;5037490;28;45320;-87
2022/09/18 00:59:53;;;;;;;;;5.00;5.00;;;;;12.27;53.42;101875.69;5020346;28;47324;-87
2022/09/18 01:02:26;;;;;;;;;7.25;3.25;;;;;12.24;53.33;101880.94;5037141;28;48866;-87
2022/09/18 01:04:52;;;;;;;;;6.75;3.00;;;;;12.23;53.79;101877.47;5055481;28;45531;-87
2022/09/18 01:07:28;;;;;;;;;2.50;2.50;;;;;12.20;53.25;101888.84;5039785;28;45338;-88
2022/09/18 01:10:03;;;;;;;;;3.50;2.50;;;;;12.20;53.65;101880.13;5039983;28;46911;-88
2022/09/18 01:12:37;;;;;;;;;7.25;4.00;;;;;12.19;53.59;101881.88;5040438;28;45783;-87
2022/09/18 01:15:25;;;;;;;;;3.00;2.75;;;;;12.19;53.53;101891.47;5058627;28;45360;-87
2022/09/18 01:18:22;;;;;;;;;5.00;3.00;;;;;12.18;53.61;101879.31;5041400;28;45293;-88
2022/09/18 01:21:19;;;;;;;;;4.00;3.75;;;;;12.20;53.84;101883.63;5038707;28;47905;-87
2022/09/18 01:24:06;;;;;;;;;6.00;3.00;;;;;12.20;53.58;101880.13;5041128;28;45356;-88
2022/09/18 01:26:37;;;;;;;;;9.25;7.75;;;;;12.17;53.69;101873.22;5058941;28;45472;-88
2022/09/18 01:29:12;;;;;;;;;8.00;6.25;;;;;12.14;53.96;101872.41;5041064;28;45502;-87
2022/09/18 01:31:47;;;;;;;;;6.00;4.75;;;;;12.13;54.05;101865.50;5040815;28;46080;-88
2022/09/18 01:34:23;;;;;;;;;6.75;6.00;;;;;12.12;54.02;101868.97;5058111;28;45420;-88
2022/09/18 01:36:53;;;;;;;;;5.25;3.75;;;;;12.09;54.14;101863.81;5060506;28;45491;-88
2022/09/18 01:39:44;;;;;;;;;9.50;5.50;;;;;12.07;54.39;101871.69;5060480;28;45489;-88
2022/09/18 01:42:10;;;;;;;;;7.25;3.75;;;;;12.03;54.52;101871.75;5060658;28;46573;-88
2022/09/18 01:44:39;;;;;;;;;7.25;6.00;;;;;12.03;54.38;101879.56;5059158;28;68876;-88
2022/09/18 01:47:09;;;;;;;;;2.50;2.50;;;;;12.02;54.56;101876.09;5060591;28;45354;-88
2022/09/18 01:49:49;;;;;;;;;5.50;3.00;;;;;12.01;54.63;101869.16;5059705;28;45353;-87
2022/09/18 01:52:38;;;;;;;;;7.00;3.00;;;;;11.98;54.28;101874.44;5061149;28;47299;-88
2022/09/18 01:55:10;;;;;;;;;5.00;2.00;;;;;11.95;54.76;101869.28;5043007;28;45434;-88
2022/09/18 01:57:42;;;;;;;;;8.25;2.50;;;;;11.92;54.56;101862.38;5040324;28;45396;-88
2022/09/18 02:00:10;;;;;;;;;7.00;3.25;;;;;11.86;54.76;101862.41;5039694;28;45368;-87
2022/09/18 02:02:45;;;;;;;;;1.00;1.00;;;;;11.85;55.29;101862.44;5039347;28;45678;-87
2022/09/18 02:05:15;;;;;;;;;4.25;3.00;;;;;11.80;55.04;101860.75;5057609;28;45802;-88
2022/09/18 02:07:46;;;;;;;;;3.50;3.00;;;;;11.75;55.21;101857.34;5022873;28;45242;-88
2022/09/18 02:10:14;;;;;;;;;5.50;3.00;;;;;11.72;55.51;101861.75;5039768;28;45666;-88
2022/09/18 02:12:43;;;;;;;;;4.00;3.00;;;;;11.71;55.20;101870.50;5057544;28;46033;-88
2022/09/18 02:15:13;;;;;;;;;6.00;3.75;;;;;11.70;55.73;101861.81;5039726;28;45823;-87
2022/09/18 02:17:56;;;;;;;;;7.00;3.00;;;;;11.70;55.53;101864.41;5038535;28;45498;-88
2022/09/18 02:20:33;;;;;;;;;6.75;5.00;;;;;11.67;55.78;101861.84;5040765;28;45539;-87
2022/09/18 02:23:07;;;;;;;;;7.50;6.00;;;;;11.61;56.20;101861.94;5039348;28;46938;-88
2022/09/18 02:26:29;;;;;;;;;6.00;6.00;;;;;11.55;56.79;101859.41;5039338;28;45462;-87
2022/09/18 02:28:55;;;;;;;;;7.50;7.00;;;;;11.46;56.39;101855.22;5042188;28;45616;-88
2022/09/18 02:31:21;;;;;;;;;5.00;3.00;;;;;11.43;56.67;101855.25;5022304;28;45576;-88
2022/09/18 02:33:52;;;;;;;;;6.50;5.50;;;;;11.41;56.60;101854.41;5034712;28;47937;-88
2022/09/18 02:36:55;;;;;;;;;11.50;6.75;;;;;11.40;57.32;101858.78;5077474;28;45858;-88
2022/09/18 02:40:02;;;;;;;;;7.00;5.75;;;;;11.39;57.12;101856.19;5074042;28;45364;-87
2022/09/18 02:42:49;;;;;;;;;10.00;7.00;;;;;11.38;57.13;101857.91;5074372;28;45364;-88
2022/09/18 02:45:53;;;;;;;;;3.50;3.50;;;;;11.36;57.12;101859.69;5077231;28;45415;-88
2022/09/18 02:48:50;;;;;;;;;5.50;5.00;;;;;11.37;56.94;101844.94;5060112;28;45815;-88
2022/09/18 02:52:00;;;;;;;;;7.25;5.75;;;;;11.39;57.00;101848.38;5059625;28;45380;-88
2022/09/18 02:55:03;;;;;;;;;5.75;5.00;;;;;11.36;57.18;101848.41;5034495;28;45572;-88
2022/09/18 02:57:56;;;;;;;;;7.75;5.50;;;;;11.27;57.25;101838.97;5011697;28;47028;-88
2022/09/18 03:00:28;;;;;;;;;3.00;3.00;;;;;11.31;57.36;101839.78;5008240;28;45848;-88
2022/09/18 03:03:06;;;;;;;;;7.50;6.00;;;;;11.32;57.18;101839.75;5018922;28;45371;-88
2022/09/18 03:05:40;;;;;;;;;6.00;4.50;;;;;11.33;56.87;101846.72;5020304;28;45432;-88
2022/09/18 03:08:12;;;;;;;;;10.75;7.00;;;;;11.33;57.14;101838.91;5018971;28;45797;-88
2022/09/18 03:10:43;;;;;;;;;6.00;6.00;;;;;11.31;57.60;101835.44;5036672;28;45370;-87
2022/09/18 03:13:09;;;;;;;;;8.00;5.00;;;;;11.27;57.43;101832.91;5036795;28;45309;-87
2022/09/18 03:15:40;;;;;;;;;6.00;6.00;;;;;11.28;57.14;101827.66;5017881;28;45662;-88
2022/09/18 03:18:10;;;;;;;;;8.50;6.00;;;;;11.32;57.53;101828.47;5018768;28;47300;-88
2022/09/18 03:20:36;;;;;;;;;7.50;6.75;;;;;11.31;57.38;101832.84;5018534;28;45788;-87
2022/09/18 03:23:01;;;;;;;;;8.00;5.00;;;;;11.29;57.33;101825.91;5036446;28;45267;-87
2022/09/18 03:25:43;;;;;;;;;8.00;6.75;;;;;11.26;57.52;101833.78;5018727;28;45311;-87
2022/09/18 03:28:08;;;;;;;;;6.00;6.00;;;;;11.21;57.65;101828.63;4985148;28;46265;-88
2022/09/18 03:30:46;;;;;;;;;6.00;6.00;;;;;11.16;57.76;101827.81;5017521;28;49471;-88
2022/09/18 03:33:11;;;;;;;;;5.75;4.50;;;;;11.12;58.06;101823.53;5039003;28;45424;-87
2022/09/18 03:35:37;;;;;;;;;5.75;3.00;;;;;11.09;58.30;101820.97;5058447;28;47155;-87
2022/09/18 03:38:02;;;;;;;;;8.00;5.75;;;;;11.09;58.54;101824.47;5058390;28;45586;-87
2022/09/18 03:40:28;;;;;;;;;6.25;3.75;;;;;11.07;58.35;101821.03;5041866;28;45537;-88
2022/09/18 03:42:59;;;;;;;;;10.75;6.00;;;;;11.09;58.23;101819.25;5058505;28;45607;-88
2022/09/18 03:45:31;;;;;;;;;6.00;4.75;;;;;11.08;57.81;101811.44;5057791;28;45514;-87
2022/09/18 03:47:57;;;;;;;;;4.50;4.50;;;;;11.03;58.16;101809.78;5076280;28;46522;-88
2022/09/18 03:50:28;;;;;;;;;7.00;5.00;;;;;11.05;58.16;101820.19;5076225;28;45836;-88
2022/09/18 03:52:54;;;;;;;;;2.50;2.50;;;;;11.05;58.20;101814.97;5058213;28;45552;-88
2022/09/18 03:55:26;;;;;;;;;5.50;5.00;;;;;11.05;58.54;101814.97;5018182;28;45415;-88
2022/09/18 03:57:52;;;;;;;;;5.75;4.50;;;;;11.05;58.18;101817.56;5034051;28;48031;-87
2022/09/18 04:00:17;;;;;;;;;6.00;5.00;;;;;11.02;58.38;101822.81;5017703;28;45458;-87
2022/09/18 04:02:49;;;;;;;;;6.00;3.75;;;;;10.97;58.75;101819.41;5017815;28;45496;-87
2022/09/18 04:05:14;;;;;;;;;6.00;4.50;;;;;10.97;58.25;101822.00;5035381;28;45519;-87
2022/09/18 04:07:40;;;;;;;;;6.00;3.00;;;;;10.97;58.76;101824.63;5035428;28;46269;-87
2022/09/18 04:10:32;;;;;;;;;6.75;5.50;;;;;10.99;58.88;101822.84;5017850;28;45352;-88
2022/09/18 04:13:06;;;;;;;;;8.25;4.50;;;;;10.95;58.27;101819.41;4992730;28;45338;-88
2022/09/18 04:15:56;;;;;;;;;4.50;4.50;;;;;10.94;58.44;101811.63;4993073;28;45608;-88
2022/09/18 04:18:21;;;;;;;;;7.25;3.50;;;;;10.93;58.93;101808.16;4961505;28;51072;-88
2022/09/18 04:20:47;;;;;;;;;4.50;4.50;;;;;10.93;58.97;101807.31;5013375;28;45445;-88
2022/09/18 04:23:27;;;;;;;;;3.00;3.00;;;;;10.90;58.77;101817.75;5013279;28;45625;-88
2022/09/18 04:25:53;;;;;;;;;3.00;3.00;;;;;10.84;58.40;101814.34;5013552;28;45569;-87
2022/09/18 04:28:19;;;;;;;;;2.50;2.00;;;;;10.82;58.79;101817.88;5012731;28;46900;-87
2022/09/18 04:30:50;;;;;;;;;4.50;2.00;;;;;10.80;58.55;101809.22;5013366;28;45513;-88
2022/09/18 04:33:18;;;;;;;;;5.00;4.00;;;;;10.79;59.02;101810.06;5016610;28;45391;-87
2022/09/18 04:35:49;;;;;;;;;4.50;4.50;;;;;10.77;58.91;101812.72;5036658;28;47072;-87
2022/09/18 04:38:26;;;;;;;;;5.50;5.00;;;;;10.74;58.80;101819.72;5036100;28;47969;-87
2022/09/18 04:40:58;;;;;;;;;2.50;2.00;;;;;10.73;58.66;101817.97;5022723;28;45512;-87
2022/09/18 04:43:29;;;;;;;;;3.00;3.00;;;;;10.74;59.32;101822.31;5056567;28;45386;-88
2022/09/18 04:45:54;;;;;;;;;1.75;1.75;;;;;10.72;59.06;101824.09;5056732;28;45512;-87
2022/09/18 04:48:20;;;;;;;;;2.00;2.00;;;;;10.70;58.68;101828.41;5056690;28;45394;-88
2022/09/18 04:50:52;;;;;;;;;5.50;5.00;;;;;10.67;58.97;101824.13;5074384;27;45587;-88
2022/09/18 04:53:17;;;;;;;;;3.00;2.50;;;;;10.67;59.00;101831.94;5038061;28;45324;-88
2022/09/18 04:55:54;;;;;;;;;;;;;;;;;;;;;
2022/09/18 04:58:24;;;;;;;;;2.00;2.00;;;;;10.63;59.61;101828.50;4984655;28;74457;-88
2022/09/18 05:00:49;;;;;;;;;2.50;2.50;;;;;10.61;59.31;101825.06;5020817;28;45939;-87
2022/09/18 05:03:16;;;;;;;;;3.50;3.50;;;;;10.60;59.35;101833.72;5021039;28;45420;-88
2022/09/18 05:05:49;;;;;;;;;3.00;3.00;;;;;10.61;59.24;101835.47;5030028;28;45590;-88
2022/09/18 05:08:21;;;;;;;;;5.00;3.00;;;;;10.62;59.39;101831.13;5002914;28;47779;-88
2022/09/18 05:10:47;;;;;;;;;4.00;3.00;;;;;10.61;59.52;101838.06;5003830;28;45456;-88
2022/09/18 05:13:27;;;;;;;;;5.75;3.00;;;;;10.58;59.60;101837.25;5038752;28;45408;-88
2022/09/18 05:16:02;;;;;;;;;5.25;3.00;;;;;10.50;59.95;101832.13;5020310;28;45358;-88
2022/09/18 05:18:27;;;;;;;;;8.00;3.00;;;;;10.49;60.05;101830.38;5020498;28;48045;-88
2022/09/18 05:20:53;;;;;;;;;2.50;2.50;;;;;10.47;59.68;101837.34;5020798;28;45345;-88
2022/09/18 05:23:25;;;;;;;;;2.75;1.75;;;;;10.52;60.27;101837.31;5018600;28;45476;-87
2022/09/18 05:25:54;;;;;;;;;5.75;4.50;;;;;10.51;60.29;101836.47;5020223;28;45550;-88
2022/09/18 05:28:25;;;;;;;;;5.00;3.00;;;;;10.49;59.98;101834.75;5038253;28;46152;-88
2022/09/18 05:30:50;;;;;;;;;3.00;3.00;;;;;10.48;60.34;101836.50;5020595;28;45340;-88
2022/09/18 05:33:15;;;;;;;;;3.00;3.00;;;;;10.44;60.03;101840.03;5040584;28;45412;-88
2022/09/18 05:35:41;;;;;;;;;4.25;3.50;;;;;10.44;60.18;101842.63;5059920;28;63021;-88
2022/09/18 05:38:13;;;;;;;;;2.00;2.00;;;;;10.42;60.16;101840.03;5056997;28;45468;-88
2022/09/18 05:40:39;;;;;;;;;3.75;2.00;;;;;10.41;60.38;101840.91;5059839;28;45733;-88
2022/09/18 05:43:22;;;;;;;;;3.50;3.00;;;;;10.44;60.43;101837.41;5060288;28;45347;-87
2022/09/18 05:45:54;;;;;;;;;4.50;4.50;;;;;10.43;60.54;101836.53;5061803;28;45547;-87
2022/09/18 05:48:20;;;;;;;;;3.00;3.00;;;;;10.44;60.93;101835.66;5043538;28;47200;-87
2022/09/18 05:50:57;;;;;;;;;5.50;3.00;;;;;10.46;60.50;101827.84;5060053;28;45322;-88
2022/09/18 05:53:23;;;;;;;;;6.25;5.25;;;;;10.49;60.45;101837.34;5038952;28;45415;-88
2022/09/18 05:55:48;;;;;;;;;5.25;2.25;;;;;10.51;60.39;101838.19;5039553;28;45412;-87
2022/09/18 05:58:21;;;;;;;;;6.00;2.00;;;;;10.50;60.59;101842.53;5022929;28;48014;-87
2022/09/18 06:00:47;;;;;;;;;2.00;2.00;;;;;10.44;60.98;101837.41;5039922;28;45921;-88
2022/09/18 06:03:18;;;;;;;;;3.00;3.00;;;;;10.37;61.54;101834.00;5039957;28;45508;-87
2022/09/18 06:05:53;;;;;;;;;3.00;3.00;;;;;10.34;61.14;101844.44;5022686;28;57896;-88
2022/09/18 06:08:28;;;;;;;;;3.00;3.00;;;;;10.36;61.61;101847.03;5039717;28;47337;-88
2022/09/18 06:11:08;;;;;;;;;5.00;2.75;;;;;10.35;61.05;101846.16;5057729;28;45246;-88
2022/09/18 06:13:33;;;;;;;;;5.00;5.00;;;;;10.36;61.94;101850.47;5039934;28;45370;-88
2022/09/18 06:15:58;;;;;;;;;3.00;3.00;;;;;10.37;61.75;101857.44;5039451;28;45432;-82
2022/09/18 06:18:24;;;;;;;;;2.00;2.00;;;;;10.37;61.99;101853.97;5057343;28;45971;-84
2022/09/18 06:20:53;;;;;;;;;4.50;3.00;;;;;10.37;62.00;101852.22;5039332;28;45964;-83
2022/09/18 06:23:19;;;;;;;;;2.50;2.50;;;;;10.39;62.38;101854.81;5039232;28;45393;-83
2022/09/18 06:25:44;;;;;;;;;3.00;2.75;;;;;10.39;61.67;101862.63;5056939;28;58024;-84
2022/09/18 06:28:09;;;;;;;;;2.25;2.25;;;;;10.40;62.21;101848.72;5056439;28;72268;-84
2022/09/18 06:30:35;;;;;;;;;2.25;2.25;;;;;10.44;62.43;101853.88;5056110;28;70087;-84
2022/09/18 06:33:04;;;;;;;;;3.00;1.50;;;;;10.48;62.28;101859.91;5065148;28;45453;-83
2022/09/18 06:35:31;;;;;;;;;3.00;3.00;;;;;10.50;62.28;101862.50;5077752;28;45315;-83
2022/09/18 06:38:01;;;;;;;;;4.75;3.00;;;;;10.50;61.94;101871.19;5042204;28;48309;-83
2022/09/18 06:40:27;;;;;;;;;2.50;1.75;;;;;10.54;61.71;101864.19;5077651;28;45370;-83
2022/09/18 06:42:57;;;;;;;;;7.00;5.00;;;;;10.60;61.82;101861.53;5059105;28;45621;-84
2022/09/18 06:45:23;;;;;;;;;11.00;9.50;;;;;10.62;61.85;101858.03;5059327;28;45435;-83
2022/09/18 06:47:53;;;;;;;;;10.75;6.00;;;;;10.66;62.03;101861.47;5059161;28;46585;-83
2022/09/18 06:50:18;;;;;;;;;11.00;10.50;;;;;10.69;61.92;101860.56;5077198;28;45875;-83
2022/09/18 06:52:43;;;;;;;;;3.00;2.00;;;;;10.73;62.31;101857.88;5077169;28;45395;-82
2022/09/18 06:55:09;;;;;;;;;11.00;8.25;;;;;10.77;62.23;101862.22;5057572;28;66135;-82
2022/09/18 06:57:34;;;;;;;;;16.00;16.00;;;;;10.81;61.86;101853.47;5037591;28;77695;-84
2022/09/18 07:00:00;;;;;;;;;2.25;2.25;;;;;10.89;62.14;101853.38;5056723;28;45307;-82
2022/09/18 07:02:25;;;;;;;;;7.50;5.00;;;;;10.94;61.85;101851.59;5056882;28;45367;-82
2022/09/18 07:04:51;;;;;;;;;3.00;3.00;;;;;11.02;61.77;101854.09;5056426;28;50489;-82
2022/09/18 07:07:17;;;;;;;;;4.50;2.00;;;;;11.06;61.45;101857.50;5056173;28;45412;-84
2022/09/18 07:09:42;;;;;;;;;2.50;2.25;;;;;11.07;61.77;101854.91;5056705;28;45362;-82
2022/09/18 07:12:07;;;;;;;;;5.50;3.00;;;;;11.09;61.95;101855.72;5056850;28;45470;-82
2022/09/18 07:14:33;;;;;;;;;5.00;5.00;;;;;11.11;61.60;101853.97;5055651;28;68550;-82
2022/09/18 07:16:58;;;;;;;;;14.75;11.75;;;;;11.15;61.44;101860.84;5056432;28;49296;-81
2022/09/18 07:19:23;;;;;;;;;5.00;5.00;;;;;11.16;61.55;101857.38;5055749;28;45723;-81
2022/09/18 07:21:51;;;;;;;;;10.25;3.00;;;;;11.19;61.93;101859.91;5053507;28;67265;-82
2022/09/18 07:24:16;;;;;;;;;3.00;2.25;;;;;11.22;61.75;101861.66;5038027;28;45377;-82
2022/09/18 07:26:42;;;;;;;;;2.25;2.25;;;;;11.22;61.03;101867.72;5056202;28;45345;-82
2022/09/18 07:29:07;;;;;;;;;3.00;1.00;;;;;11.28;61.43;101853.72;5055624;28;59295;-83
2022/09/18 07:31:34;;;;;;;;;14.25;14.25;;;;;11.33;61.63;101856.25;5038035;28;46398;-82
2022/09/18 07:33:59;;;;;;;;;10.25;7.00;;;;;11.36;61.58;101866.66;5072575;28;45442;-82
2022/09/18 07:36:26;;;;;;;;;3.25;2.25;;;;;11.39;61.67;101861.41;5073343;28;45419;-84
2022/09/18 07:38:51;;;;;;;;;3.00;2.75;;;;;11.43;61.39;101863.94;5038098;28;45368;-83
2022/09/18 07:41:17;;;;;;;;;5.00;2.00;;;;;11.48;61.44;101865.59;5055820;28;45432;-82
2022/09/18 07:43:43;;;;;;;;;2.00;2.00;;;;;11.56;61.79;101863.75;5037513;28;45551;-84
2022/09/18 07:46:08;;;;;;;;;3.00;2.00;;;;;11.62;61.00;101868.88;5054685;28;46461;-82
2022/09/18 07:48:34;;;;;;;;;11.75;11.00;;;;;11.64;61.40;101872.31;5055390;28;45289;-83
2022/09/18 07:51:00;;;;;;;;;5.00;5.00;;;;;11.71;61.45;101865.28;5055685;28;45333;-83
2022/09/18 07:53:25;;;;;;;;;1.00;1.00;;;;;11.77;60.66;101865.16;5055707;28;45290;-83
2022/09/18 07:55:52;;;;;;;;;6.00;4.50;;;;;11.84;61.04;101866.78;5054424;28;47254;-83
2022/09/18 07:58:17;;;;;;;;;9.75;6.50;;;;;11.92;60.87;101864.97;5055604;28;45726;-83
2022/09/18 08:00:42;;;;;;;;;3.00;3.00;;;;;12.04;60.49;101871.72;5054991;28;64549;-82
2022/09/18 08:03:12;;;;;;;;;2.75;2.25;;;;;12.10;61.14;101870.75;5054872;28;45609;-82
2022/09/18 08:05:39;;;;;;;;;1.50;1.50;;;;;12.20;60.09;101872.31;5054524;28;45440;-83
2022/09/18 08:08:06;;;;;;;;;6.00;4.50;;;;;12.30;60.73;101878.25;5037670;28;45925;-83
2022/09/18 08:10:32;;;;;;;;;6.50;2.75;;;;;12.35;60.02;101879.88;5037629;28;45389;-83
2022/09/18 08:12:58;;;;;;;;;8.75;7.25;;;;;12.46;59.84;101874.47;5055462;28;45453;-82
2022/09/18 08:15:23;;;;;;;;;9.75;9.75;;;;;12.52;60.38;101882.19;5058909;28;45443;-82
2022/09/18 08:17:49;;;;;;;;;9.00;7.00;;;;;12.59;59.89;101875.06;5062329;28;45341;-82
2022/09/18 08:20:14;;;;;;;;;7.75;3.00;;;;;12.64;60.19;101877.59;5059584;28;60656;-82
2022/09/18 08:22:40;;;;;;;;;2.75;2.75;;;;;12.69;59.57;101879.25;5061572;28;45389;-82
2022/09/18 08:25:06;;;;;;;;;11.25;8.50;;;;;12.77;60.07;101881.69;5061350;28;45566;-81
2022/09/18 08:27:37;;;;;;;;;13.25;10.50;;;;;12.84;59.52;101877.22;5061793;28;45468;-81
2022/09/18 08:30:05;;;;;;;;;5.25;2.25;;;;;12.90;59.54;101882.31;5043844;28;45413;-80
2022/09/18 08:32:30;;;;;;;;;3.25;3.00;;;;;12.97;59.09;101873.47;5065884;28;45440;-82
2022/09/18 08:34:56;;;;;;;;;3.00;3.00;;;;;13.08;59.02;101876.72;5063339;28;45390;-82
2022/09/18 08:37:22;;;;;;;;;6.00;6.00;;;;;13.18;59.17;101875.59;5061673;28;45467;-81
2022/09/18 08:39:47;;;;;;;;;3.75;3.75;;;;;13.26;58.92;101870.22;5061449;28;64097;-83
2022/09/18 08:42:22;;;;;;;;;10.75;10.75;;;;;13.35;58.81;101866.56;5060698;28;71272;-83
2022/09/18 08:44:55;;;;;;;;;3.50;2.00;;;;;13.47;58.07;101868.06;5060654;28;46569;-81
2022/09/18 08:47:25;;;;;;;;;4.50;2.00;;;;;13.59;57.53;101861.66;5062055;28;45377;-82
2022/09/18 08:50:00;;;;;;;;;7.00;7.00;;;;;13.64;57.91;101871.13;5043833;28;45415;-82
2022/09/18 08:52:28;;;;;;;;;9.50;9.50;;;;;13.71;57.89;101864.84;5044271;28;45389;-82
2022/09/18 08:55:00;;;;;;;;;4.75;2.50;;;;;13.83;57.34;101871.53;5061626;28;46309;-82
2022/09/18 08:57:34;;;;;;;;;10.50;4.00;;;;;13.93;57.38;101872.19;5043924;28;45369;-82
2022/09/18 09:00:06;;;;;;;;;4.50;4.50;;;;;14.00;57.29;101873.72;5061145;28;45347;-82
2022/09/18 09:02:41;;;;;;;;;14.50;11.00;;;;;14.12;56.52;101875.22;5060796;28;45423;-82
2022/09/18 09:05:17;;;;;;;;;14.00;12.75;;;;;14.24;56.47;101877.47;5043571;28;45365;-82
2022/09/18 09:07:51;;;;;;;;;3.50;3.00;;;;;14.33;57.03;101873.78;5035758;28;45401;-82
2022/09/18 09:10:22;;;;;;;;;2.75;2.75;;;;;14.41;56.15;101871.81;5062165;28;45347;-82
2022/09/18 09:12:53;;;;;;;;;3.00;3.00;;;;;14.48;55.88;101864.66;5061922;28;45378;-82
2022/09/18 09:15:38;;;;;;;;;2.00;2.00;;;;;14.56;56.13;101865.31;5061593;28;46370;-82
2022/09/18 09:18:17;;;;;;;;;2.00;2.00;;;;;14.66;55.72;101864.16;5061428;28;45424;-82
2022/09/18 09:20:51;;;;;;;;;3.75;2.75;;;;;14.79;55.96;101862.06;5019022;28;45517;-82
2022/09/18 09:23:28;;;;;;;;;2.25;2.25;;;;;14.89;55.58;101857.41;5061673;28;45393;-82
2022/09/18 09:26:13;;;;;;;;;5.50;5.25;;;;;14.99;54.51;101858.00;5042165;28;45614;-82
2022/09/18 09:29:11;;;;;;;;;2.00;2.00;;;;;15.09;53.62;101857.66;5040282;28;45679;-83
2022/09/18 09:31:44;;;;;;;;;15.00;11.00;;;;;15.25;53.14;101854.59;5054178;28;45375;-82
2022/09/18 09:34:18;;;;;;;;;1.50;1.50;;;;;15.38;53.36;101849.81;5054269;28;45560;-82
2022/09/18 09:36:47;;;;;;;;;2.50;1.75;;;;;15.48;53.03;101852.09;5056786;28;45439;-82
2022/09/18 09:39:29;;;;;;;;;2.00;1.00;;;;;15.57;52.19;101850.13;5056929;28;45440;-83
2022/09/18 09:41:58;;;;;;;;;2.75;2.00;;;;;15.65;52.36;101845.47;5057358;28;45407;-83
2022/09/18 09:44:42;;;;;;;;;1.50;1.25;;;;;15.74;51.07;101846.97;5076080;28;45312;-82
2022/09/18 09:47:37;;;;;;;;;2.75;2.75;;;;;15.86;51.05;101849.16;5077917;28;46477;-82
2022/09/18 09:50:02;;;;;;;;;13.00;12.25;;;;;15.93;50.10;101855.94;5076058;28;45343;-83
2022/09/18 09:52:28;;;;;;;;;16.25;12.75;;;;;16.03;49.59;101853.88;5078342;28;45264;-83
2022/09/18 09:55:07;;;;;;;;;2.00;2.00;;;;;16.14;49.87;101843.84;5043645;28;45533;-82
2022/09/18 09:57:54;;;;;;;;;5.00;3.75;;;;;16.28;48.78;101853.03;5057846;28;46506;-83
2022/09/18 10:00:20;;;;;;;;;7.25;2.00;;;;;16.37;48.54;101850.94;5057744;28;45803;-82
2022/09/18 10:02:57;;;;;;;;;1.00;1.00;;;;;16.49;48.60;101848.75;5057709;28;45258;-82
2022/09/18 10:05:33;;;;;;;;;22.50;16.50;;;;;16.57;48.32;101849.38;5057713;28;45325;-82
2022/09/18 10:08:06;;;;;;;;;1.75;1.75;;;;;16.65;47.79;101847.31;5039706;28;45424;-83
2022/09/18 10:10:34;;;;;;;;;2.00;2.00;;;;;16.75;46.79;101855.69;5057861;28;45328;-82
2022/09/18 10:13:09;;;;;;;;;2.25;1.00;;;;;16.81;47.45;101844.97;5057823;28;45305;-83
2022/09/18 10:15:41;;;;;;;;;1.00;1.00;;;;;16.90;46.64;101844.66;5038961;28;45674;-83
2022/09/18 10:18:13;;;;;;;;;6.25;5.00;;;;;16.98;45.58;101845.22;5039629;28;45426;-83
2022/09/18 10:20:39;;;;;;;;;2.50;2.00;;;;;17.07;46.36;101835.25;5039464;28;45350;-82
2022/09/18 10:23:40;;;;;;;;;2.00;1.00;;;;;17.16;45.79;101830.50;5039047;28;61557;-83
2022/09/18 10:26:10;;;;;;;;;1.00;1.00;;;;;17.23;46.59;101823.19;5057646;28;45491;-82
2022/09/18 10:28:35;;;;;;;;;10.75;10.00;;;;;17.28;45.21;101823.03;5039322;28;46696;-81
2022/09/18 10:31:09;;;;;;;;;1.00;1.00;;;;;17.35;45.74;101827.16;5056225;28;70108;-80
2022/09/18 10:33:41;;;;;;;;;1.00;1.00;;;;;17.46;45.07;101818.78;5069784;28;45284;-80
2022/09/18 10:36:18;;;;;;;;;1.25;1.00;;;;;17.54;44.35;101825.47;5077667;28;45302;-80
2022/09/18 10:38:44;;;;;;;;;1.25;1.00;;;;;17.66;43.72;101813.56;5058998;28;45482;-80
2022/09/18 10:41:30;;;;;;;;;2.00;2.00;;;;;17.79;42.99;101819.16;5058530;28;45832;-80
2022/09/18 10:43:58;;;;;;;;;2.75;1.00;;;;;17.92;43.98;101815.16;5059249;28;45316;-80
2022/09/18 10:46:27;;;;;;;;;2.00;1.00;;;;;17.97;43.75;101818.44;5077525;28;45317;-80
2022/09/18 10:48:53;;;;;;;;;0.00;0.00;;;;;18.10;43.59;101807.38;5042569;28;46405;-81
2022/09/18 10:51:20;;;;;;;;;1.00;1.00;;;;;18.21;43.66;101813.03;5056728;28;45315;-78
2022/09/18 10:54:13;;;;;;;;;1.00;1.00;;;;;18.49;43.78;101811.78;5056725;28;45343;-80
2022/09/18 10:56:38;;;;;;;;;1.00;1.00;;;;;18.66;43.13;101818.94;5055873;28;45328;-80
2022/09/18 10:59:13;;;;;;;;;2.00;2.00;;;;;18.73;43.10;101808.03;5054341;28;70125;-79
2022/09/18 11:01:38;;;;;;;;;3.75;3.75;;;;;18.92;41.97;101809.84;5056689;28;45389;-82
2022/09/18 11:04:05;;;;;;;;;2.25;2.00;;;;;19.05;42.53;101808.34;5037789;28;69233;-80
2022/09/18 11:06:34;;;;;;;;;4.00;4.00;;;;;19.17;42.00;101806.91;5056967;28;45362;-82
2022/09/18 11:09:01;;;;;;;;;3.75;2.00;;;;;19.39;42.48;101800.56;5019357;28;47165;-80
2022/09/18 11:11:29;;;;;;;;;3.75;1.75;;;;;19.56;42.08;101794.44;5018508;28;45305;-79
2022/09/18 11:14:00;;;;;;;;;6.00;4.75;;;;;19.74;41.02;101796.19;5034204;28;45447;-80
2022/09/18 11:16:49;;;;;;;;;4.50;2.00;;;;;19.95;41.43;101798.66;5038687;28;45370;-81
2022/09/18 11:19:28;;;;;;;;;1.00;1.00;;;;;20.20;40.12;101799.13;5028077;28;45791;-81
2022/09/18 11:21:55;;;;;;;;;2.00;2.00;;;;;20.55;40.65;101793.72;5038261;28;45313;-83
2022/09/18 11:24:32;;;;;;;;;3.00;2.00;;;;;21.26;40.38;101792.47;5038631;28;45404;-80
2022/09/18 11:27:14;;;;;;;;;1.75;1.75;;;;;24.03;36.57;101793.72;5038969;28;45408;-80
2022/09/18 11:29:41;;;;;;;;;1.75;1.75;;;;;26.50;35.04;101791.47;5037158;28;47941;-81
2022/09/18 11:32:18;;;;;;;;;4.50;2.00;;;;;27.66;33.10;101788.25;5038635;28;45823;-81
2022/09/18 11:34:52;;;;;;;;;2.75;2.75;;;;;29.32;26.42;101801.25;5076457;28;45384;-80
2022/09/18 11:37:36;;;;;;;;;3.00;3.00;;;;;30.22;27.13;101798.25;5048922;28;45350;-81
2022/09/18 11:40:07;;;;;;;;;2.75;2.75;;;;;30.23;26.83;101794.59;5038074;28;45477;-81
2022/09/18 11:42:41;;;;;;;;;1.25;1.25;;;;;30.49;24.43;101790.25;5037799;28;45399;-81
2022/09/18 11:45:30;;;;;;;;;2.75;2.75;;;;;31.22;23.71;101807.31;5038362;28;45799;-80
2022/09/18 11:48:35;;;;;;;;;4.00;3.00;;;;;32.18;21.57;101793.91;5031983;28;45509;-81